Time;durP1;ratioP1;P1;durP2;ratioP2;P2;SDS_P1;SDS_P2;PMS_P1;PMS_P2;Temp;Humidity;BMP_temperature;BMP_pressure;BME280_temperature;BME280_humidity;BME280_pressure;Samples;Min_cycle;Max_cycle;Signal;HPM_P1;HPM_P2
2021/05/30 00:02:21;;;;;;;2.37;1.33;;;;;;;10.67;86.84;102129.25;5053011;28;20488;-70
2021/05/30 00:04:47;;;;;;;1.67;1.23;;;;;;;10.67;86.67;102138.22;5053096;28;20526;-69
2021/05/30 00:07:13;;;;;;;2.87;1.47;;;;;;;10.53;86.96;102134.31;5052631;28;20481;-69
2021/05/30 00:09:39;;;;;;;1.23;0.80;;;;;;;10.39;86.76;102141.28;5052647;28;20480;-70
2021/05/30 00:12:06;;;;;;;2.10;1.20;;;;;;;10.30;85.84;102139.06;5053038;28;20844;-71
2021/05/30 00:14:33;;;;;;;1.30;1.17;;;;;;;10.23;85.32;102130.31;5052923;28;20434;-71
2021/05/30 00:16:59;;;;;;;3.40;1.50;;;;;;;10.10;86.52;102131.59;5052899;28;20466;-71
2021/05/30 00:19:25;;;;;;;1.10;0.87;;;;;;;10.08;86.50;102127.50;5052729;28;20434;-71
2021/05/30 00:21:51;;;;;;;3.10;1.10;;;;;;;10.02;87.40;102133.97;5052848;28;20442;-71
2021/05/30 00:24:17;;;;;;;4.57;1.50;;;;;;;9.98;87.20;102122.81;5052729;28;20540;-71
2021/05/30 00:26:43;;;;;;;2.70;1.50;;;;;;;10.02;89.27;102131.25;5052473;28;20450;-71
2021/05/30 00:29:09;;;;;;;5.17;1.20;;;;;;;10.01;90.00;102126.91;5052728;28;20434;-71
2021/05/30 00:31:36;;;;;;;1.40;1.03;;;;;;;9.96;90.60;102129.56;5052738;28;20438;-71
2021/05/30 00:34:02;;;;;;;1.60;1.50;;;;;;;9.88;91.68;102119.22;5052709;28;20468;-71
2021/05/30 00:36:29;;;;;;;2.47;1.70;;;;;;;9.88;92.17;102127.34;5052342;28;20535;-71
2021/05/30 00:38:55;;;;;;;3.07;1.10;;;;;;;9.89;93.02;102123.56;5052744;28;20446;-71
2021/05/30 00:41:20;;;;;;;19.13;1.90;;;;;;;9.93;92.53;102140.91;5052676;28;20446;-71
2021/05/30 00:43:48;;;;;;;2.03;1.47;;;;;;;9.90;92.92;102136.81;5055004;28;21056;-71
2021/05/30 00:46:14;;;;;;;1.83;1.23;;;;;;;9.83;93.42;102134.34;5056356;28;20492;-70
2021/05/30 00:48:42;;;;;;;1.80;1.10;;;;;;;9.90;92.93;102136.00;5056439;28;20790;-70
2021/05/30 00:51:08;;;;;;;2.70;1.50;;;;;;;9.77;92.21;102127.25;5056363;28;20445;-70
2021/05/30 00:53:35;;;;;;;2.20;1.20;;;;;;;9.72;90.85;102129.91;5056712;28;20441;-70
2021/05/30 00:56:06;;;;;;;2.00;0.97;;;;;;;9.71;89.99;102132.88;5056371;28;20457;-70
2021/05/30 00:58:32;;;;;;;1.10;0.90;;;;;;;9.61;91.11;102128.19;5056289;28;20847;-70
2021/05/30 01:00:58;;;;;;;1.97;1.70;;;;;;;9.46;92.40;102126.13;5056193;28;20861;-70
2021/05/30 01:03:24;;;;;;;3.33;2.00;;;;;;;9.46;92.96;102128.84;5056029;28;20482;-71
2021/05/30 01:05:51;;;;;;;2.80;1.33;;;;;;;9.42;91.57;102121.50;5056030;28;20462;-71
2021/05/30 01:08:25;;;;;;;3.00;1.60;;;;;;;9.41;91.33;102122.56;5056296;28;20438;-71
2021/05/30 01:10:53;;;;;;;2.40;1.50;;;;;;;9.40;91.03;102119.06;5061795;28;20919;-71
2021/05/30 01:13:20;;;;;;;5.57;2.30;;;;;;;9.32;92.15;102114.09;5056004;28;20446;-71
2021/05/30 01:15:47;;;;;;;2.73;1.40;;;;;;;9.37;92.91;102116.03;5055514;28;20990;-71
2021/05/30 01:18:15;;;;;;;2.23;1.60;;;;;;;9.35;94.34;102113.59;5055821;28;20442;-71
2021/05/30 01:20:41;;;;;;;3.13;1.60;;;;;;;9.43;94.73;102109.59;5056028;28;20449;-71
2021/05/30 01:23:11;;;;;;;2.23;1.83;;;;;;;9.43;94.71;102112.31;5055670;28;20478;-71
2021/05/30 01:25:37;;;;;;;1.63;1.47;;;;;;;9.47;94.58;102116.13;5055893;28;20466;-69
2021/05/30 01:28:05;;;;;;;2.60;1.40;;;;;;;9.49;94.90;102114.00;5055675;28;20449;-71
2021/05/30 01:30:31;;;;;;;0.70;0.70;;;;;;;9.51;94.45;102109.97;5055584;28;20441;-71
2021/05/30 01:32:57;;;;;;;1.17;0.87;;;;;;;9.51;93.87;102112.66;5055263;28;20947;-71
2021/05/30 01:35:23;;;;;;;8.47;1.50;;;;;;;9.48;93.97;102110.50;5055005;28;20870;-70
2021/05/30 01:37:51;;;;;;;3.00;1.23;;;;;;;9.43;93.97;102115.00;5055469;28;20442;-71
2021/05/30 01:40:19;;;;;;;2.93;1.50;;;;;;;9.32;93.97;102114.91;5055585;28;20482;-71
2021/05/30 01:42:45;;;;;;;1.80;1.50;;;;;;;9.32;93.98;102120.31;5055384;28;20438;-71
2021/05/30 01:45:12;;;;;;;1.10;0.90;;;;;;;9.24;93.56;102123.47;5055269;28;20982;-70
2021/05/30 01:47:38;;;;;;;6.63;2.27;;;;;;;9.20;92.47;102116.94;5054981;28;20978;-71
2021/05/30 01:50:07;;;;;;;3.57;1.47;;;;;;;9.15;91.41;102111.50;5055147;28;20549;-71
2021/05/30 01:52:33;;;;;;;2.90;0.93;;;;;;;9.12;90.40;102112.00;5055177;28;20449;-71
2021/05/30 01:55:00;;;;;;;1.40;1.10;;;;;;;9.04;89.37;102113.28;5054757;28;20442;-71
2021/05/30 01:57:27;;;;;;;1.73;1.13;;;;;;;9.00;89.26;102117.53;5054994;28;20449;-71
2021/05/30 01:59:55;;;;;;;2.87;1.00;;;;;;;8.86;90.24;102116.31;5055122;28;20446;-71
2021/05/30 02:02:23;;;;;;;7.53;1.97;;;;;;;8.85;90.34;102130.84;5054968;28;20572;-71
2021/05/30 02:04:49;;;;;;;4.53;2.47;;;;;;;8.81;90.05;102129.75;5054847;28;20482;-71
2021/05/30 02:07:16;;;;;;;2.93;1.80;;;;;;;8.80;90.20;102128.09;5054908;28;20499;-71
2021/05/30 02:09:43;;;;;;;1.40;0.67;;;;;;;8.81;91.39;102127.88;5054898;28;20445;-71
2021/05/30 02:12:10;;;;;;;3.60;1.80;;;;;;;8.75;93.25;102130.72;5054167;28;20474;-70
2021/05/30 02:14:36;;;;;;;1.17;0.97;;;;;;;8.73;94.46;102136.41;5054445;28;20441;-71
2021/05/30 02:17:03;;;;;;;3.40;1.70;;;;;;;8.79;94.42;102135.38;5054347;28;20987;-71
2021/05/30 02:19:29;;;;;;;1.00;0.90;;;;;;;8.80;94.50;102134.31;5054672;28;20496;-71
2021/05/30 02:21:55;;;;;;;2.40;1.10;;;;;;;8.84;94.22;102140.03;5054640;28;20442;-71
2021/05/30 02:24:22;;;;;;;3.90;1.97;;;;;;;8.85;94.38;102138.97;5054675;28;20493;-71
2021/05/30 02:26:49;;;;;;;1.67;1.30;;;;;;;8.82;94.45;102137.59;5054739;28;20458;-71
2021/05/30 02:29:24;;;;;;;1.57;1.07;;;;;;;8.78;94.78;102139.16;5054423;28;20453;-71
2021/05/30 02:31:51;;;;;;;1.67;1.57;;;;;;;8.83;94.34;102139.22;5054476;28;20414;-71
2021/05/30 02:34:17;;;;;;;3.37;1.47;;;;;;;8.82;94.55;102139.47;5054260;28;20492;-71
2021/05/30 02:36:43;;;;;;;3.90;1.33;;;;;;;8.91;94.18;102147.97;5053959;28;20477;-70
2021/05/30 02:39:09;;;;;;;2.80;2.00;;;;;;;8.86;94.16;102142.50;5054540;28;20438;-70
2021/05/30 02:41:35;;;;;;;3.47;1.63;;;;;;;8.66;92.47;102143.03;5054311;28;20447;-70
2021/05/30 02:44:01;;;;;;;4.13;1.60;;;;;;;8.64;92.08;102146.00;5054131;28;20490;-70
2021/05/30 02:46:26;;;;;;;0.93;0.73;;;;;;;8.50;91.89;102140.16;5054122;28;20513;-70
2021/05/30 02:48:53;;;;;;;0.80;0.77;;;;;;;8.41;90.66;102135.38;5054129;28;20500;-70
2021/05/30 02:51:19;;;;;;;2.50;1.57;;;;;;;8.42;89.95;102139.75;5054070;28;20461;-70
2021/05/30 02:53:45;;;;;;;3.00;1.13;;;;;;;8.40;90.01;102144.56;5054062;28;20935;-70
2021/05/30 02:56:11;;;;;;;1.23;0.97;;;;;;;8.29;90.07;102139.00;5053532;28;20982;-70
2021/05/30 02:58:37;;;;;;;2.07;1.10;;;;;;;8.18;90.52;102142.59;5053944;28;20465;-70
2021/05/30 03:01:03;;;;;;;2.53;1.37;;;;;;;8.17;90.93;102142.84;5059726;28;20454;-71
2021/05/30 03:03:29;;;;;;;1.23;0.77;;;;;;;8.18;92.64;102147.97;5053799;28;20478;-70
2021/05/30 03:05:56;;;;;;;1.43;1.33;;;;;;;8.12;94.51;102146.28;5053182;28;20466;-70
2021/05/30 03:08:22;;;;;;;1.03;0.93;;;;;;;8.15;94.87;102142.28;5053776;28;20500;-70
2021/05/30 03:10:47;;;;;;;1.63;1.17;;;;;;;8.13;95.00;102144.38;5053721;28;20818;-70
2021/05/30 03:13:13;;;;;;;1.50;0.83;;;;;;;8.21;94.55;102150.19;5053624;28;20857;-70
2021/05/30 03:15:39;;;;;;;1.20;0.83;;;;;;;8.21;94.36;102157.47;5053566;28;21052;-70
2021/05/30 03:18:06;;;;;;;2.33;1.40;;;;;;;8.18;94.99;102147.16;5053567;28;20437;-70
2021/05/30 03:20:32;;;;;;;2.77;1.47;;;;;;;8.18;95.11;102153.38;5053582;28;20492;-69
2021/05/30 03:22:59;;;;;;;2.47;1.37;;;;;;;8.23;95.30;102156.16;5053457;28;20849;-70
2021/05/30 03:25:25;;;;;;;1.37;0.70;;;;;;;8.25;95.25;102150.53;5053096;28;20511;-70
2021/05/30 03:27:51;;;;;;;1.50;1.00;;;;;;;8.23;95.61;102152.63;5053466;28;20439;-70
2021/05/30 03:30:17;;;;;;;1.33;0.83;;;;;;;8.24;95.97;102157.81;5053424;28;20809;-70
2021/05/30 03:32:43;;;;;;;2.67;1.23;;;;;;;8.26;95.57;102161.06;5053020;28;20867;-70
2021/05/30 03:35:09;;;;;;;4.10;2.03;;;;;;;8.19;94.12;102152.34;5053100;28;20492;-70
2021/05/30 03:37:35;;;;;;;9.77;1.63;;;;;;;8.27;92.48;102159.19;5053369;28;20426;-70
2021/05/30 03:40:09;;;;;;;1.97;1.00;;;;;;;8.21;92.44;102160.19;5053249;28;20500;-70
2021/05/30 03:42:37;;;;;;;2.03;1.30;;;;;;;8.17;91.94;102159.84;5053327;28;20434;-70
2021/05/30 03:45:04;;;;;;;1.20;1.10;;;;;;;8.15;91.83;102159.28;5053082;28;20477;-70
2021/05/30 03:47:30;;;;;;;12.97;1.10;;;;;;;8.17;92.31;102157.16;5053169;28;20443;-70
2021/05/30 03:49:56;;;;;;;3.80;0.90;;;;;;;8.21;93.67;102157.47;5052804;28;20882;-70
2021/05/30 03:52:22;;;;;;;2.80;1.27;;;;;;;8.23;93.17;102153.44;5053092;28;20445;-70
2021/05/30 03:54:48;;;;;;;1.63;1.53;;;;;;;8.22;92.75;102151.00;5052752;28;20437;-70
2021/05/30 03:57:15;;;;;;;1.73;1.30;;;;;;;8.34;92.46;102149.84;5053018;28;20445;-70
2021/05/30 03:59:41;;;;;;;4.00;1.80;;;;;;;8.44;94.47;102153.81;5053059;28;20911;-70
2021/05/30 04:02:07;;;;;;;3.90;2.23;;;;;;;8.53;95.22;102149.63;5052677;28;20435;-70
2021/05/30 04:04:33;;;;;;;4.00;1.23;;;;;;;8.68;95.76;102151.72;5052759;28;20531;-70
2021/05/30 04:06:59;;;;;;;3.33;2.10;;;;;;;8.83;95.85;102155.44;5052839;28;20469;-70
2021/05/30 04:09:25;;;;;;;5.43;2.13;;;;;;;8.88;95.98;102161.97;5052587;28;20438;-70
2021/05/30 04:11:51;;;;;;;2.83;1.33;;;;;;;8.97;96.38;102149.66;5052933;28;20457;-70
2021/05/30 04:14:18;;;;;;;1.70;1.60;;;;;;;9.07;95.92;102160.59;5052869;28;20438;-70
2021/05/30 04:16:43;;;;;;;1.10;1.00;;;;;;;9.10;95.86;102154.69;5053327;28;20946;-70
2021/05/30 04:19:09;;;;;;;2.30;1.27;;;;;;;9.13;95.83;102151.47;5056904;28;20438;-70
2021/05/30 04:21:35;;;;;;;1.03;0.60;;;;;;;9.17;95.52;102159.91;5056903;28;20441;-70
2021/05/30 04:24:01;;;;;;;2.10;1.10;;;;;;;9.14;95.54;102150.41;5056763;28;20532;-70
2021/05/30 04:26:27;;;;;;;2.47;1.30;;;;;;;9.27;95.44;102150.03;5056708;28;20507;-70
2021/05/30 04:28:53;;;;;;;1.90;1.23;;;;;;;9.33;95.43;102162.50;5056811;28;20441;-70
2021/05/30 04:31:20;;;;;;;3.10;1.70;;;;;;;9.45;94.56;102158.88;5056735;28;20864;-70
2021/05/30 04:33:46;;;;;;;1.60;1.17;;;;;;;9.50;93.37;102158.91;5056734;28;20612;-70
2021/05/30 04:36:12;;;;;;;2.63;1.93;;;;;;;9.53;92.49;102158.41;5056317;28;20473;-70
2021/05/30 04:38:38;;;;;;;4.20;1.70;;;;;;;9.60;91.73;102167.13;5056623;28;20521;-70
2021/05/30 04:41:04;;;;;;;3.03;1.60;;;;;;;9.66;91.14;102160.72;5056589;28;20452;-70
2021/05/30 04:43:29;;;;;;;1.70;0.87;;;;;;;9.74;90.04;102162.97;5062349;28;20508;-70
2021/05/30 04:45:55;;;;;;;3.03;1.87;;;;;;;9.76;91.01;102162.69;5056468;28;20485;-71
2021/05/30 04:48:22;;;;;;;1.60;1.50;;;;;;;9.82;90.24;102164.34;5056071;28;20446;-70
2021/05/30 04:51:05;;;;;;;1.60;0.90;;;;;;;9.89;90.00;102173.09;5056369;28;20442;-70
2021/05/30 04:53:31;;;;;;;2.17;1.37;;;;;;;9.99;90.29;102172.38;5056388;28;20426;-69
2021/05/30 04:56:00;;;;;;;2.30;1.00;;;;;;;10.12;90.46;102177.34;5056211;28;20466;-70
2021/05/30 04:58:26;;;;;;;2.20;1.20;;;;;;;10.24;90.02;102180.72;5055962;28;20947;-70
2021/05/30 05:00:52;;;;;;;1.50;1.23;;;;;;;10.29;89.62;102182.66;5056197;28;20496;-70
2021/05/30 05:03:18;;;;;;;1.53;1.00;;;;;;;10.38;89.71;102191.13;5056045;28;20442;-70
2021/05/30 05:05:45;;;;;;;3.63;1.10;;;;;;;10.52;88.44;102189.59;5056066;28;20515;-70
2021/05/30 05:08:11;;;;;;;3.23;2.23;;;;;;;10.67;88.03;102188.84;5056267;28;20442;-71
2021/05/30 05:10:37;;;;;;;3.37;1.43;;;;;;;10.80;87.41;102181.09;5056003;28;20561;-70
2021/05/30 05:13:03;;;;;;;1.53;0.93;;;;;;;10.86;84.74;102195.50;5055956;28;20435;-72
2021/05/30 05:15:29;;;;;;;0.70;0.60;;;;;;;11.03;83.71;102184.47;5055584;28;20963;-71
2021/05/30 05:17:55;;;;;;;11.97;1.63;;;;;;;11.16;83.06;102191.31;5055889;28;20852;-71
2021/05/30 05:20:21;;;;;;;2.53;1.13;;;;;;;11.22;81.95;102191.03;5055785;28;20931;-70
2021/05/30 05:22:47;;;;;;;1.60;1.40;;;;;;;11.35;81.28;102195.97;5055825;28;20824;-69
2021/05/30 05:25:14;;;;;;;1.83;1.60;;;;;;;11.43;80.08;102186.50;5055586;28;20494;-70
2021/05/30 05:27:40;;;;;;;0.90;0.80;;;;;;;11.46;79.01;102185.94;5055697;28;20812;-70
2021/05/30 05:30:07;;;;;;;2.03;1.37;;;;;;;11.52;77.28;102187.63;5054673;28;20442;-70
2021/05/30 05:32:33;;;;;;;1.30;1.20;;;;;;;11.61;75.32;102185.19;5055595;28;20446;-69
2021/05/30 05:34:59;;;;;;;1.17;0.90;;;;;;;11.61;72.73;102188.72;5055362;28;20937;-70
2021/05/30 05:37:25;;;;;;;1.27;0.97;;;;;;;11.75;73.20;102188.19;5056917;28;20426;-70
2021/05/30 05:39:52;;;;;;;1.70;1.00;;;;;;;11.84;74.73;102192.84;5055443;28;20442;-70
2021/05/30 05:42:18;;;;;;;1.90;1.10;;;;;;;11.88;74.08;102187.69;5055502;28;20813;-70
2021/05/30 05:44:44;;;;;;;1.13;1.03;;;;;;;11.96;73.71;102173.59;5055300;28;20557;-70
2021/05/30 05:47:10;;;;;;;2.40;1.23;;;;;;;12.04;73.28;102180.38;5055344;28;20448;-70
2021/05/30 05:49:36;;;;;;;1.60;1.33;;;;;;;12.12;74.45;102179.81;5055315;28;20450;-70
2021/05/30 05:52:02;;;;;;;1.13;1.03;;;;;;;12.21;73.53;102182.81;5055249;28;20445;-70
2021/05/30 05:54:28;;;;;;;1.67;1.30;;;;;;;12.27;73.32;102184.47;5054906;28;20843;-70
2021/05/30 05:56:55;;;;;;;1.47;0.50;;;;;;;12.47;72.64;102183.59;5054771;28;20508;-72
2021/05/30 05:59:21;;;;;;;1.70;0.90;;;;;;;12.56;71.29;102190.09;5054763;28;20943;-71
2021/05/30 06:01:47;;;;;;;2.10;1.17;;;;;;;12.66;69.27;102192.00;5054749;28;20568;-71
2021/05/30 06:04:13;;;;;;;2.30;1.90;;;;;;;12.71;67.99;102190.09;5054863;28;20628;-71
2021/05/30 06:06:39;;;;;;;1.33;1.00;;;;;;;12.83;67.52;102192.50;5054902;28;20838;-71
2021/05/30 06:09:05;;;;;;;2.20;0.87;;;;;;;12.93;69.56;102186.22;5054905;28;20795;-71
2021/05/30 06:11:31;;;;;;;4.27;1.50;;;;;;;12.95;66.46;102184.03;5054893;28;20442;-71
2021/05/30 06:13:57;;;;;;;2.77;1.37;;;;;;;13.09;67.81;102187.78;5054792;28;20450;-71
2021/05/30 06:16:23;;;;;;;1.63;1.03;;;;;;;13.19;67.25;102193.16;5054716;28;20512;-71
2021/05/30 06:18:49;;;;;;;1.87;0.80;;;;;;;13.28;66.31;102188.00;5054429;28;20441;-71
2021/05/30 06:21:15;;;;;;;0.90;0.70;;;;;;;13.38;63.97;102196.94;5054349;28;20449;-71
2021/05/30 06:23:41;;;;;;;1.10;1.00;;;;;;;13.42;63.88;102190.94;5054261;28;20535;-71
2021/05/30 06:26:10;;;;;;;1.47;1.07;;;;;;;13.53;62.25;102195.22;5054743;28;20462;-71
2021/05/30 06:28:36;;;;;;;0.70;0.70;;;;;;;13.62;61.62;102193.53;5060847;28;20450;-71
2021/05/30 06:31:03;;;;;;;2.40;1.10;;;;;;;13.70;61.30;102192.13;5054533;28;20441;-72
2021/05/30 06:33:29;;;;;;;1.13;1.00;;;;;;;13.75;58.37;102194.81;5054489;28;20500;-72
2021/05/30 06:35:55;;;;;;;1.10;0.80;;;;;;;13.78;59.91;102197.78;5054103;28;20474;-71
2021/05/30 06:38:21;;;;;;;1.10;1.00;;;;;;;13.88;59.58;102195.00;5054310;28;20504;-71
2021/05/30 06:40:46;;;;;;;1.40;0.97;;;;;;;14.00;60.34;102196.56;5053344;28;20464;-71
2021/05/30 06:43:12;;;;;;;2.33;1.70;;;;;;;14.07;59.51;102203.28;5054223;28;20472;-72
2021/05/30 06:45:38;;;;;;;0.77;0.70;;;;;;;14.11;58.91;102203.53;5054073;28;20489;-71
2021/05/30 06:48:06;;;;;;;4.50;0.93;;;;;;;14.12;55.27;102202.44;5054185;28;20473;-71
2021/05/30 06:50:32;;;;;;;1.03;0.97;;;;;;;14.14;54.03;102205.69;5053798;28;20813;-71
2021/05/30 06:52:58;;;;;;;1.70;1.30;;;;;;;14.20;56.63;102195.56;5054318;28;20439;-71
2021/05/30 06:55:24;;;;;;;1.30;1.20;;;;;;;14.23;56.03;102200.44;5053959;28;20459;-71
2021/05/30 06:57:51;;;;;;;1.17;0.77;;;;;;;14.22;54.37;102210.53;5054010;28;20492;-71
2021/05/30 07:00:18;;;;;;;1.03;0.80;;;;;;;14.34;52.67;102197.34;5053879;28;20442;-71
2021/05/30 07:02:44;;;;;;;2.20;0.80;;;;;;;14.44;53.38;102201.09;5053908;28;20486;-71
2021/05/30 07:05:12;;;;;;;0.60;0.60;;;;;;;14.53;52.97;102202.13;5053613;28;20513;-71
2021/05/30 07:07:38;;;;;;;1.07;1.00;;;;;;;14.60;52.33;102208.84;5053757;28;20544;-71
2021/05/30 07:10:05;;;;;;;1.20;1.10;;;;;;;14.69;52.64;102211.75;5053704;28;20496;-71
2021/05/30 07:12:31;;;;;;;8.50;1.20;;;;;;;14.74;52.39;102206.28;5053948;28;20451;-71
2021/05/30 07:14:59;;;;;;;0.57;0.50;;;;;;;14.72;50.82;102203.00;5053553;28;20442;-70
2021/05/30 07:17:25;;;;;;;0.70;0.50;;;;;;;14.69;50.39;102206.28;5053629;28;20450;-71
2021/05/30 07:19:52;;;;;;;1.43;0.70;;;;;;;14.84;52.21;102205.34;5053296;28;20864;-70
2021/05/30 07:22:19;;;;;;;1.20;0.90;;;;;;;14.97;53.35;102206.56;5053441;28;20446;-70
2021/05/30 07:24:45;;;;;;;1.33;1.10;;;;;;;15.00;52.54;102200.50;5053237;28;20536;-70
2021/05/30 07:27:11;;;;;;;1.37;0.73;;;;;;;15.06;52.86;102208.34;5053187;28;20441;-70
2021/05/30 07:29:37;;;;;;;1.13;1.00;;;;;;;15.13;51.38;102216.16;5053629;28;20446;-70
2021/05/30 07:32:03;;;;;;;0.83;0.80;;;;;;;15.19;49.55;102209.56;5053384;28;20450;-71
2021/05/30 07:34:29;;;;;;;0.90;0.70;;;;;;;15.21;49.09;102206.53;5053374;28;20439;-71
2021/05/30 07:36:55;;;;;;;1.30;0.87;;;;;;;15.28;52.82;102207.81;5052905;28;20492;-71
2021/05/30 07:39:22;;;;;;;1.23;0.77;;;;;;;15.39;51.70;102216.66;5053265;28;20442;-71
2021/05/30 07:41:48;;;;;;;1.73;1.00;;;;;;;15.39;50.36;102217.47;5053303;28;20438;-71
2021/05/30 07:44:15;;;;;;;2.30;1.03;;;;;;;15.50;51.54;102209.16;5053206;28;20482;-71
2021/05/30 07:46:41;;;;;;;1.20;0.80;;;;;;;15.57;51.80;102215.88;5053174;28;20872;-71
2021/05/30 07:49:07;;;;;;;1.10;1.00;;;;;;;15.59;50.14;102215.59;5052843;28;20951;-71
2021/05/30 07:51:33;;;;;;;4.00;1.60;;;;;;;15.67;51.43;102214.97;5052844;28;20449;-71
2021/05/30 07:53:59;;;;;;;1.10;0.90;;;;;;;15.71;51.16;102215.16;5053152;28;20443;-71
2021/05/30 07:56:26;;;;;;;1.50;0.83;;;;;;;15.75;49.00;102217.00;5053272;28;20532;-71
2021/05/30 07:58:52;;;;;;;1.23;0.90;;;;;;;15.80;49.65;102222.41;5053119;28;20477;-71
2021/05/30 08:01:18;;;;;;;1.57;1.03;;;;;;;15.83;49.86;102210.88;5053340;28;20474;-71
2021/05/30 08:03:44;;;;;;;1.27;1.17;;;;;;;15.87;50.35;102214.66;5052953;28;20482;-70
2021/05/30 08:06:10;;;;;;;2.47;1.20;;;;;;;15.96;50.18;102222.19;5052913;28;20462;-71
2021/05/30 08:08:36;;;;;;;1.20;0.70;;;;;;;15.96;48.43;102223.00;5053037;28;20823;-71
2021/05/30 08:11:02;;;;;;;7.40;1.30;;;;;;;16.02;47.32;102215.50;5053021;28;20935;-70
2021/05/30 08:13:29;;;;;;;0.80;0.80;;;;;;;16.12;50.27;102210.72;5052940;28;20442;-70
2021/05/30 08:15:54;;;;;;;2.00;0.90;;;;;;;16.27;49.80;102217.03;5058882;28;20462;-71
2021/05/30 08:18:20;;;;;;;1.47;0.90;;;;;;;16.30;47.03;102206.31;5052566;28;20500;-70
2021/05/30 08:20:47;;;;;;;0.70;0.60;;;;;;;16.33;47.63;102211.16;5052905;28;20442;-70
2021/05/30 08:23:13;;;;;;;6.13;1.10;;;;;;;16.34;49.95;102207.34;5052813;28;20471;-70
2021/05/30 08:25:39;;;;;;;1.27;1.17;;;;;;;16.42;47.44;102216.75;5052810;28;20482;-70
2021/05/30 08:28:09;;;;;;;1.50;0.70;;;;;;;16.45;46.18;102204.41;5052781;28;20477;-69
2021/05/30 08:30:37;;;;;;;0.60;0.60;;;;;;;16.48;47.41;102212.84;5053136;28;20587;-70
2021/05/30 08:33:03;;;;;;;0.80;0.70;;;;;;;16.55;46.76;102209.69;5052786;28;20488;-70
2021/05/30 08:35:29;;;;;;;1.40;0.83;;;;;;;16.68;46.97;102210.81;5052476;28;20481;-70
2021/05/30 08:37:55;;;;;;;1.57;0.87;;;;;;;16.74;47.85;102201.47;5052400;28;20846;-70
2021/05/30 08:40:23;;;;;;;1.00;0.87;;;;;;;16.82;48.78;102209.78;5052710;28;20445;-70
2021/05/30 08:42:49;;;;;;;0.97;0.80;;;;;;;16.86;45.77;102210.75;5052667;28;20442;-72
2021/05/30 08:45:16;;;;;;;1.83;0.73;;;;;;;16.87;46.62;102201.47;5052519;28;20841;-72
2021/05/30 08:47:43;;;;;;;0.80;0.80;;;;;;;16.97;45.80;102213.31;5052358;28;20881;-69
2021/05/30 08:50:10;;;;;;;3.17;1.20;;;;;;;16.97;45.43;102203.19;5052716;28;20446;-72
2021/05/30 08:52:36;;;;;;;0.90;0.80;;;;;;;17.10;47.12;102204.28;5052313;28;20863;-71
2021/05/30 08:55:04;;;;;;;1.90;1.80;;;;;;;17.19;48.23;102212.59;5052109;28;20434;-72
2021/05/30 08:57:30;;;;;;;1.80;1.47;;;;;;;17.26;47.21;102204.75;5052495;28;20465;-72
2021/05/30 08:59:58;;;;;;;1.77;1.20;;;;;;;17.33;46.74;102210.66;5052538;28;20442;-72
2021/05/30 09:02:24;;;;;;;0.77;0.70;;;;;;;17.21;44.92;102208.44;5052446;28;20457;-70
2021/05/30 09:04:53;;;;;;;0.77;0.60;;;;;;;17.31;45.70;102210.13;5054718;28;20482;-70
2021/05/30 09:07:20;;;;;;;2.00;1.10;;;;;;;17.36;46.47;102205.38;5055776;28;20943;-70
2021/05/30 09:09:47;;;;;;;7.83;0.97;;;;;;;17.45;46.11;102208.19;5055736;28;20443;-69
2021/05/30 09:12:20;;;;;;;1.73;0.80;;;;;;;17.50;46.52;102194.38;5055601;28;20446;-69
2021/05/30 09:14:50;;;;;;;1.07;0.50;;;;;;;17.57;46.94;102200.22;5056076;28;20442;-70
2021/05/30 09:17:16;;;;;;;2.13;1.23;;;;;;;17.66;47.20;102203.06;5055576;28;20939;-70
2021/05/30 09:19:44;;;;;;;0.80;0.80;;;;;;;17.70;46.45;102204.06;5055816;28;20443;-71
2021/05/30 09:22:34;;;;;;;0.90;0.60;;;;;;;17.71;46.42;102192.00;5055797;28;20438;-70
2021/05/30 09:25:12;;;;;;;1.03;0.90;;;;;;;17.70;47.39;102193.09;5055616;28;20589;-70
2021/05/30 09:27:44;;;;;;;0.87;0.70;;;;;;;17.74;44.73;102204.28;5055748;28;20426;-70
2021/05/30 09:30:24;;;;;;;1.17;0.70;;;;;;;17.74;45.85;102199.59;5055718;28;20418;-70
2021/05/30 09:33:01;;;;;;;1.20;1.10;;;;;;;17.89;45.79;102196.53;5055633;28;20441;-70
2021/05/30 09:35:28;;;;;;;1.43;0.80;;;;;;;17.95;46.47;102196.41;5055577;28;20474;-69
2021/05/30 09:38:00;;;;;;;1.57;0.80;;;;;;;17.99;47.21;102202.88;5055522;28;20495;-69
2021/05/30 09:40:37;;;;;;;0.73;0.73;;;;;;;18.11;45.65;102194.91;5055374;28;20958;-69
2021/05/30 09:43:08;;;;;;;1.10;1.00;;;;;;;18.13;45.21;102195.38;5055362;28;20445;-70
2021/05/30 09:45:35;;;;;;;1.43;1.00;;;;;;;18.21;47.04;102191.09;5055494;28;20524;-69
2021/05/30 09:48:03;;;;;;;1.30;0.87;;;;;;;18.28;46.52;102194.19;5055258;28;21012;-69
2021/05/30 09:50:32;;;;;;;1.53;1.10;;;;;;;18.33;45.78;102197.63;5055291;28;20442;-69
2021/05/30 09:53:00;;;;;;;1.03;0.93;;;;;;;18.46;44.89;102195.09;5055482;28;20529;-70
2021/05/30 09:55:29;;;;;;;0.80;0.80;;;;;;;18.48;45.50;102192.84;5055120;28;20497;-70
2021/05/30 09:58:11;;;;;;;3.40;0.80;;;;;;;18.59;45.85;102199.66;5054861;28;20433;-71
2021/05/30 10:00:38;;;;;;;0.70;0.60;;;;;;;18.65;45.31;102191.00;5055153;28;20484;-69
2021/05/30 10:03:05;;;;;;;0.80;0.70;;;;;;;18.72;44.94;102198.00;5055061;28;20504;-70
2021/05/30 10:05:32;;;;;;;1.73;1.00;;;;;;;18.69;43.31;102191.22;5054158;28;20502;-68
2021/05/30 10:07:59;;;;;;;2.43;1.10;;;;;;;18.80;43.56;102198.03;5061436;28;20446;-70
2021/05/30 10:10:25;;;;;;;0.87;0.70;;;;;;;18.90;44.25;102197.75;5055007;28;20442;-70
2021/05/30 10:12:52;;;;;;;1.63;0.70;;;;;;;18.94;44.62;102199.84;5054974;28;20445;-70
2021/05/30 10:15:18;;;;;;;1.47;0.87;;;;;;;19.01;43.32;102197.47;5054170;28;20970;-69
2021/05/30 10:17:46;;;;;;;1.03;0.93;;;;;;;18.99;42.72;102191.47;5054733;28;20492;-69
2021/05/30 10:20:16;;;;;;;3.57;1.20;;;;;;;18.88;42.37;102191.75;5054686;28;20449;-69
2021/05/30 10:22:43;;;;;;;1.53;1.17;;;;;;;18.96;43.28;102179.19;5054688;28;20452;-70
2021/05/30 10:25:11;;;;;;;1.63;0.60;;;;;;;19.12;41.75;102190.53;5054234;28;21025;-69
2021/05/30 10:27:37;;;;;;;0.80;0.70;;;;;;;19.13;43.87;102181.97;5054611;28;20453;-70
2021/05/30 10:30:19;;;;;;;1.40;0.93;;;;;;;19.32;44.74;102183.63;5054622;28;20478;-71
2021/05/30 10:32:46;;;;;;;1.40;1.00;;;;;;;19.42;43.73;102189.59;5054565;28;20442;-72
2021/05/30 10:35:18;;;;;;;1.63;1.30;;;;;;;19.53;42.41;102186.56;5054239;28;20982;-72
2021/05/30 10:37:46;;;;;;;3.70;1.17;;;;;;;19.62;44.35;102182.72;5054119;28;20798;-71
2021/05/30 10:40:29;;;;;;;2.83;0.80;;;;;;;19.73;42.34;102179.63;5054445;28;20476;-71
2021/05/30 10:43:17;;;;;;;1.10;0.90;;;;;;;19.78;41.61;102193.22;5054375;28;20448;-70
2021/05/30 10:46:00;;;;;;;1.27;1.13;;;;;;;19.65;42.20;102184.81;5054460;28;20486;-70
2021/05/30 10:48:27;;;;;;;1.43;1.00;;;;;;;19.45;41.47;102179.94;5053873;28;20433;-70
2021/05/30 10:51:33;;;;;;;1.07;0.77;;;;;;;19.64;42.04;102176.88;5054174;28;20442;-70
2021/05/30 10:54:10;;;;;;;2.67;0.90;;;;;;;19.85;41.52;102179.78;5054166;28;20438;-71
2021/05/30 10:56:39;;;;;;;1.40;1.27;;;;;;;19.64;42.04;102176.88;5053685;28;20497;-70
2021/05/30 10:59:36;;;;;;;2.07;1.00;;;;;;;19.76;41.70;102185.31;5053968;28;20486;-70
2021/05/30 11:02:03;;;;;;;1.33;1.03;;;;;;;19.91;41.70;102186.72;5053819;28;20469;-70
2021/05/30 11:04:34;;;;;;;1.10;0.80;;;;;;;20.33;42.63;102167.72;5053807;28;20482;-70
2021/05/30 11:07:03;;;;;;;1.20;0.80;;;;;;;20.59;40.03;102170.44;5053577;28;20473;-70
2021/05/30 11:10:09;;;;;;;3.20;1.30;;;;;;;20.86;42.04;102177.44;5053568;28;20446;-69
2021/05/30 11:12:49;;;;;;;1.10;1.00;;;;;;;21.29;41.55;102168.88;5053735;28;20453;-71
2021/05/30 11:15:32;;;;;;;0.90;0.77;;;;;;;21.77;37.87;102175.00;5053712;28;20454;-73
2021/05/30 11:17:59;;;;;;;1.37;0.90;;;;;;;22.71;37.41;102168.81;5053741;28;20427;-71
2021/05/30 11:20:29;;;;;;;2.10;1.30;;;;;;;23.15;35.20;102165.16;5053573;28;20442;-71
2021/05/30 11:22:57;;;;;;;1.17;1.07;;;;;;;23.60;36.25;102163.28;5053337;28;20962;-71
2021/05/30 11:25:25;;;;;;;2.40;1.07;;;;;;;23.96;35.94;102156.81;5053914;28;20905;-71
2021/05/30 11:27:57;;;;;;;1.40;1.20;;;;;;;24.61;34.18;102168.44;5052631;28;20843;-71
2021/05/30 11:30:55;;;;;;;5.10;1.07;;;;;;;24.45;34.46;102169.59;5053650;28;20435;-71
2021/05/30 11:33:42;;;;;;;1.00;0.90;;;;;;;23.94;35.48;102161.88;4953275;29;20427;-71